sensor_id;sensor_type;location;lat;lon;timestamp;P1;durP1;ratioP1;P2;durP2;ratioP2
32864;SDS011;19219;44.500;11.188;2023-05-25T00:01:41;49.15;;;32.13;;
32864;SDS011;19219;44.500;11.188;2023-05-25T00:04:08;59.63;;;33.55;;
32864;SDS011;19219;44.500;11.188;2023-05-25T00:06:35;58.55;;;32.95;;
32864;SDS011;19219;44.500;11.188;2023-05-25T00:11:31;53.05;;;30.15;;
32864;SDS011;19219;44.500;11.188;2023-05-25T00:13:56;50.78;;;32.13;;
32864;SDS011;19219;44.500;11.188;2023-05-25T00:16:22;51.25;;;33.40;;
32864;SDS011;19219;44.500;11.188;2023-05-25T00:18:48;40.80;;;28.88;;
32864;SDS011;19219;44.500;11.188;2023-05-25T00:21:14;43.92;;;29.67;;
32864;SDS011;19219;44.500;11.188;2023-05-25T00:23:40;45.33;;;30.73;;
32864;SDS011;19219;44.500;11.188;2023-05-25T00:26:06;47.47;;;28.88;;
32864;SDS011;19219;44.500;11.188;2023-05-25T00:28:32;41.00;;;27.02;;
32864;SDS011;19219;44.500;11.188;2023-05-25T00:30:57;42.33;;;29.38;;
32864;SDS011;19219;44.500;11.188;2023-05-25T00:33:23;45.38;;;27.08;;
32864;SDS011;19219;44.500;11.188;2023-05-25T00:35:49;41.25;;;26.20;;
32864;SDS011;19219;44.500;11.188;2023-05-25T00:38:16;40.92;;;26.25;;
32864;SDS011;19219;44.500;11.188;2023-05-25T00:40:42;37.90;;;25.58;;
32864;SDS011;19219;44.500;11.188;2023-05-25T00:43:09;35.38;;;23.50;;
32864;SDS011;19219;44.500;11.188;2023-05-25T00:45:36;36.03;;;25.02;;
32864;SDS011;19219;44.500;11.188;2023-05-25T00:48:05;41.03;;;24.45;;
32864;SDS011;19219;44.500;11.188;2023-05-25T00:53:05;35.47;;;22.00;;
32864;SDS011;19219;44.500;11.188;2023-05-25T00:55:35;30.00;;;21.17;;
32864;SDS011;19219;44.500;11.188;2023-05-25T00:58:05;33.08;;;21.15;;
32864;SDS011;19219;44.500;11.188;2023-05-25T01:00:32;27.52;;;19.75;;
32864;SDS011;19219;44.500;11.188;2023-05-25T01:03:03;27.85;;;18.73;;
32864;SDS011;19219;44.500;11.188;2023-05-25T01:05:35;31.75;;;21.70;;
32864;SDS011;19219;44.500;11.188;2023-05-25T01:08:02;31.52;;;21.52;;
32864;SDS011;19219;44.500;11.188;2023-05-25T01:10:32;33.15;;;20.23;;
32864;SDS011;19219;44.500;11.188;2023-05-25T01:13:00;30.63;;;20.38;;
32864;SDS011;19219;44.500;11.188;2023-05-25T01:15:27;24.17;;;18.25;;
32864;SDS011;19219;44.500;11.188;2023-05-25T01:17:54;27.65;;;19.13;;
32864;SDS011;19219;44.500;11.188;2023-05-25T01:20:23;29.65;;;18.30;;
32864;SDS011;19219;44.500;11.188;2023-05-25T01:25:21;27.00;;;19.08;;
32864;SDS011;19219;44.500;11.188;2023-05-25T01:28:17;28.15;;;17.92;;
32864;SDS011;19219;44.500;11.188;2023-05-25T01:30:47;25.77;;;17.88;;
32864;SDS011;19219;44.500;11.188;2023-05-25T01:33:13;26.38;;;17.05;;
32864;SDS011;19219;44.500;11.188;2023-05-25T01:35:42;20.20;;;16.88;;
32864;SDS011;19219;44.500;11.188;2023-05-25T01:38:09;21.58;;;16.85;;
32864;SDS011;19219;44.500;11.188;2023-05-25T01:40:35;22.55;;;15.90;;
32864;SDS011;19219;44.500;11.188;2023-05-25T01:43:01;26.80;;;17.90;;
32864;SDS011;19219;44.500;11.188;2023-05-25T01:45:26;23.13;;;16.40;;
32864;SDS011;19219;44.500;11.188;2023-05-25T01:50:45;24.10;;;16.15;;
32864;SDS011;19219;44.500;11.188;2023-05-25T01:53:25;29.55;;;17.85;;
32864;SDS011;19219;44.500;11.188;2023-05-25T01:56:06;29.17;;;17.75;;
32864;SDS011;19219;44.500;11.188;2023-05-25T01:58:37;23.40;;;16.50;;
32864;SDS011;19219;44.500;11.188;2023-05-25T02:01:06;24.48;;;15.68;;
32864;SDS011;19219;44.500;11.188;2023-05-25T02:03:33;23.98;;;16.13;;
32864;SDS011;19219;44.500;11.188;2023-05-25T02:05:59;22.90;;;14.95;;
32864;SDS011;19219;44.500;11.188;2023-05-25T02:08:25;21.63;;;15.57;;
32864;SDS011;19219;44.500;11.188;2023-05-25T02:10:51;24.33;;;15.93;;
32864;SDS011;19219;44.500;11.188;2023-05-25T02:13:16;24.67;;;15.95;;
32864;SDS011;19219;44.500;11.188;2023-05-25T02:15:42;22.50;;;15.05;;
32864;SDS011;19219;44.500;11.188;2023-05-25T02:18:08;26.50;;;16.42;;
32864;SDS011;19219;44.500;11.188;2023-05-25T02:20:35;23.13;;;16.05;;
32864;SDS011;19219;44.500;11.188;2023-05-25T02:23:01;22.50;;;16.10;;
32864;SDS011;19219;44.500;11.188;2023-05-25T02:25:27;24.63;;;14.70;;
32864;SDS011;19219;44.500;11.188;2023-05-25T02:27:52;21.88;;;15.70;;
32864;SDS011;19219;44.500;11.188;2023-05-25T02:30:18;22.50;;;16.00;;
32864;SDS011;19219;44.500;11.188;2023-05-25T02:32:44;29.23;;;16.45;;
32864;SDS011;19219;44.500;11.188;2023-05-25T02:35:10;22.25;;;15.23;;
32864;SDS011;19219;44.500;11.188;2023-05-25T02:37:35;21.80;;;14.93;;
32864;SDS011;19219;44.500;11.188;2023-05-25T02:40:01;28.88;;;17.00;;
32864;SDS011;19219;44.500;11.188;2023-05-25T02:42:28;26.42;;;17.55;;
32864;SDS011;19219;44.500;11.188;2023-05-25T02:44:53;23.42;;;16.60;;
32864;SDS011;19219;44.500;11.188;2023-05-25T02:47:19;27.90;;;18.40;;
32864;SDS011;19219;44.500;11.188;2023-05-25T02:49:45;25.98;;;16.95;;
32864;SDS011;19219;44.500;11.188;2023-05-25T02:52:11;25.23;;;16.13;;
32864;SDS011;19219;44.500;11.188;2023-05-25T02:54:37;25.02;;;18.33;;
32864;SDS011;19219;44.500;11.188;2023-05-25T02:57:03;24.33;;;16.67;;
32864;SDS011;19219;44.500;11.188;2023-05-25T02:59:29;23.80;;;16.30;;
32864;SDS011;19219;44.500;11.188;2023-05-25T03:01:55;24.20;;;16.95;;
32864;SDS011;19219;44.500;11.188;2023-05-25T03:04:20;22.58;;;15.55;;
32864;SDS011;19219;44.500;11.188;2023-05-25T03:06:46;30.20;;;18.30;;
32864;SDS011;19219;44.500;11.188;2023-05-25T03:09:12;25.42;;;17.15;;
32864;SDS011;19219;44.500;11.188;2023-05-25T03:11:38;25.85;;;16.77;;
32864;SDS011;19219;44.500;11.188;2023-05-25T03:14:03;26.05;;;16.40;;
32864;SDS011;19219;44.500;11.188;2023-05-25T03:16:29;25.20;;;14.75;;
32864;SDS011;19219;44.500;11.188;2023-05-25T03:18:55;26.00;;;15.15;;
32864;SDS011;19219;44.500;11.188;2023-05-25T03:21:21;22.33;;;15.40;;
32864;SDS011;19219;44.500;11.188;2023-05-25T03:23:47;23.38;;;14.55;;
32864;SDS011;19219;44.500;11.188;2023-05-25T03:26:13;21.52;;;14.10;;
32864;SDS011;19219;44.500;11.188;2023-05-25T03:28:39;20.83;;;14.18;;
32864;SDS011;19219;44.500;11.188;2023-05-25T03:31:05;20.85;;;14.48;;
32864;SDS011;19219;44.500;11.188;2023-05-25T03:33:31;19.48;;;14.77;;
32864;SDS011;19219;44.500;11.188;2023-05-25T03:35:57;19.83;;;13.45;;
32864;SDS011;19219;44.500;11.188;2023-05-25T03:38:23;22.90;;;14.85;;
32864;SDS011;19219;44.500;11.188;2023-05-25T03:40:49;21.33;;;14.63;;
32864;SDS011;19219;44.500;11.188;2023-05-25T03:43:14;20.73;;;14.13;;
32864;SDS011;19219;44.500;11.188;2023-05-25T03:45:40;18.20;;;13.88;;
32864;SDS011;19219;44.500;11.188;2023-05-25T03:48:06;21.10;;;14.52;;
32864;SDS011;19219;44.500;11.188;2023-05-25T03:50:32;22.85;;;14.15;;
32864;SDS011;19219;44.500;11.188;2023-05-25T03:52:58;20.48;;;14.65;;
32864;SDS011;19219;44.500;11.188;2023-05-25T03:55:23;22.58;;;14.27;;
32864;SDS011;19219;44.500;11.188;2023-05-25T03:57:49;20.33;;;13.65;;
32864;SDS011;19219;44.500;11.188;2023-05-25T04:00:15;20.45;;;13.60;;
32864;SDS011;19219;44.500;11.188;2023-05-25T04:02:40;21.67;;;13.73;;
32864;SDS011;19219;44.500;11.188;2023-05-25T04:05:06;19.05;;;14.60;;
32864;SDS011;19219;44.500;11.188;2023-05-25T04:07:33;21.35;;;14.30;;
32864;SDS011;19219;44.500;11.188;2023-05-25T04:10:01;19.38;;;14.70;;
32864;SDS011;19219;44.500;11.188;2023-05-25T04:12:27;22.17;;;13.68;;
32864;SDS011;19219;44.500;11.188;2023-05-25T04:14:52;19.45;;;13.38;;
32864;SDS011;19219;44.500;11.188;2023-05-25T04:17:18;22.10;;;14.77;;
32864;SDS011;19219;44.500;11.188;2023-05-25T04:19:46;18.00;;;12.45;;
32864;SDS011;19219;44.500;11.188;2023-05-25T04:22:11;20.33;;;14.32;;
32864;SDS011;19219;44.500;11.188;2023-05-25T04:24:37;21.50;;;14.07;;
32864;SDS011;19219;44.500;11.188;2023-05-25T04:27:03;20.30;;;13.68;;
32864;SDS011;19219;44.500;11.188;2023-05-25T04:29:29;21.60;;;14.68;;
32864;SDS011;19219;44.500;11.188;2023-05-25T04:31:56;21.95;;;13.82;;
32864;SDS011;19219;44.500;11.188;2023-05-25T04:34:21;19.23;;;14.02;;
32864;SDS011;19219;44.500;11.188;2023-05-25T04:36:47;22.90;;;13.68;;
32864;SDS011;19219;44.500;11.188;2023-05-25T04:39:13;21.08;;;14.27;;
32864;SDS011;19219;44.500;11.188;2023-05-25T04:41:40;26.35;;;15.77;;
32864;SDS011;19219;44.500;11.188;2023-05-25T04:44:07;21.38;;;15.10;;
32864;SDS011;19219;44.500;11.188;2023-05-25T04:46:32;24.02;;;14.73;;
32864;SDS011;19219;44.500;11.188;2023-05-25T04:49:01;20.95;;;14.50;;
32864;SDS011;19219;44.500;11.188;2023-05-25T04:51:28;22.60;;;14.25;;
32864;SDS011;19219;44.500;11.188;2023-05-25T04:53:54;22.15;;;14.05;;
32864;SDS011;19219;44.500;11.188;2023-05-25T04:56:20;18.50;;;13.88;;
32864;SDS011;19219;44.500;11.188;2023-05-25T04:58:49;16.88;;;13.52;;
32864;SDS011;19219;44.500;11.188;2023-05-25T05:01:16;23.52;;;14.00;;
32864;SDS011;19219;44.500;11.188;2023-05-25T05:03:43;26.23;;;15.93;;
32864;SDS011;19219;44.500;11.188;2023-05-25T05:06:09;24.85;;;16.77;;
32864;SDS011;19219;44.500;11.188;2023-05-25T05:08:35;28.58;;;19.55;;
32864;SDS011;19219;44.500;11.188;2023-05-25T05:11:00;24.08;;;14.95;;
32864;SDS011;19219;44.500;11.188;2023-05-25T05:13:26;29.55;;;17.08;;
32864;SDS011;19219;44.500;11.188;2023-05-25T05:15:52;21.30;;;15.40;;
32864;SDS011;19219;44.500;11.188;2023-05-25T05:18:18;29.13;;;17.80;;
32864;SDS011;19219;44.500;11.188;2023-05-25T05:20:44;35.10;;;21.50;;
32864;SDS011;19219;44.500;11.188;2023-05-25T05:23:10;25.80;;;17.65;;
32864;SDS011;19219;44.500;11.188;2023-05-25T05:25:36;25.98;;;16.65;;
32864;SDS011;19219;44.500;11.188;2023-05-25T05:28:02;25.23;;;16.92;;
32864;SDS011;19219;44.500;11.188;2023-05-25T05:30:28;27.55;;;16.83;;
32864;SDS011;19219;44.500;11.188;2023-05-25T05:32:54;22.85;;;15.88;;
32864;SDS011;19219;44.500;11.188;2023-05-25T05:35:20;122.72;;;79.95;;
32864;SDS011;19219;44.500;11.188;2023-05-25T05:37:46;37.13;;;24.10;;
32864;SDS011;19219;44.500;11.188;2023-05-25T05:40:12;28.88;;;18.83;;
32864;SDS011;19219;44.500;11.188;2023-05-25T05:42:38;28.63;;;18.25;;
32864;SDS011;19219;44.500;11.188;2023-05-25T05:45:03;26.48;;;16.15;;
32864;SDS011;19219;44.500;11.188;2023-05-25T05:47:30;25.38;;;17.10;;
32864;SDS011;19219;44.500;11.188;2023-05-25T05:49:55;22.50;;;14.77;;
32864;SDS011;19219;44.500;11.188;2023-05-25T05:52:21;24.20;;;16.55;;
32864;SDS011;19219;44.500;11.188;2023-05-25T05:54:47;26.88;;;16.55;;
32864;SDS011;19219;44.500;11.188;2023-05-25T05:57:12;22.92;;;16.33;;
32864;SDS011;19219;44.500;11.188;2023-05-25T05:59:38;26.15;;;16.95;;
32864;SDS011;19219;44.500;11.188;2023-05-25T06:02:04;27.33;;;17.60;;
32864;SDS011;19219;44.500;11.188;2023-05-25T06:04:31;24.15;;;16.60;;
32864;SDS011;19219;44.500;11.188;2023-05-25T06:06:57;43.63;;;28.63;;
32864;SDS011;19219;44.500;11.188;2023-05-25T06:09:23;33.17;;;16.85;;
32864;SDS011;19219;44.500;11.188;2023-05-25T06:11:50;28.23;;;15.85;;
32864;SDS011;19219;44.500;11.188;2023-05-25T06:14:16;25.88;;;16.80;;
32864;SDS011;19219;44.500;11.188;2023-05-25T06:16:42;25.00;;;16.25;;
32864;SDS011;19219;44.500;11.188;2023-05-25T06:19:07;28.52;;;16.77;;
32864;SDS011;19219;44.500;11.188;2023-05-25T06:21:33;30.73;;;18.67;;
32864;SDS011;19219;44.500;11.188;2023-05-25T06:23:59;29.20;;;18.77;;
32864;SDS011;19219;44.500;11.188;2023-05-25T06:26:24;29.40;;;17.45;;
32864;SDS011;19219;44.500;11.188;2023-05-25T06:28:51;31.17;;;20.10;;
32864;SDS011;19219;44.500;11.188;2023-05-25T06:31:17;28.58;;;18.92;;
32864;SDS011;19219;44.500;11.188;2023-05-25T06:33:43;30.02;;;19.67;;
32864;SDS011;19219;44.500;11.188;2023-05-25T06:36:08;29.45;;;19.98;;
32864;SDS011;19219;44.500;11.188;2023-05-25T06:38:35;35.95;;;20.50;;
32864;SDS011;19219;44.500;11.188;2023-05-25T06:41:00;35.35;;;23.48;;
32864;SDS011;19219;44.500;11.188;2023-05-25T06:43:28;33.50;;;20.60;;
32864;SDS011;19219;44.500;11.188;2023-05-25T06:45:56;29.52;;;21.83;;
32864;SDS011;19219;44.500;11.188;2023-05-25T06:48:22;32.13;;;21.20;;
32864;SDS011;19219;44.500;11.188;2023-05-25T06:50:47;35.40;;;21.42;;
32864;SDS011;19219;44.500;11.188;2023-05-25T06:53:13;37.70;;;21.70;;
32864;SDS011;19219;44.500;11.188;2023-05-25T06:55:39;31.60;;;19.60;;
32864;SDS011;19219;44.500;11.188;2023-05-25T06:58:05;29.02;;;18.85;;
32864;SDS011;19219;44.500;11.188;2023-05-25T07:00:31;30.65;;;20.35;;
32864;SDS011;19219;44.500;11.188;2023-05-25T07:02:56;36.90;;;20.27;;
32864;SDS011;19219;44.500;11.188;2023-05-25T07:05:22;30.52;;;18.83;;
32864;SDS011;19219;44.500;11.188;2023-05-25T07:07:47;33.33;;;22.50;;
32864;SDS011;19219;44.500;11.188;2023-05-25T07:10:13;34.08;;;22.25;;
32864;SDS011;19219;44.500;11.188;2023-05-25T07:12:39;32.67;;;20.88;;
32864;SDS011;19219;44.500;11.188;2023-05-25T07:15:05;33.67;;;22.42;;
32864;SDS011;19219;44.500;11.188;2023-05-25T07:17:31;38.80;;;23.55;;
32864;SDS011;19219;44.500;11.188;2023-05-25T07:19:56;37.88;;;22.23;;
32864;SDS011;19219;44.500;11.188;2023-05-25T07:22:22;36.65;;;22.80;;
32864;SDS011;19219;44.500;11.188;2023-05-25T07:24:48;41.30;;;23.45;;
32864;SDS011;19219;44.500;11.188;2023-05-25T07:27:14;60.20;;;37.05;;
32864;SDS011;19219;44.500;11.188;2023-05-25T07:29:40;51.88;;;26.67;;
32864;SDS011;19219;44.500;11.188;2023-05-25T07:32:06;38.45;;;23.88;;
32864;SDS011;19219;44.500;11.188;2023-05-25T07:34:34;40.13;;;25.70;;
32864;SDS011;19219;44.500;11.188;2023-05-25T07:37:00;42.15;;;25.13;;
32864;SDS011;19219;44.500;11.188;2023-05-25T07:39:26;44.10;;;27.38;;
32864;SDS011;19219;44.500;11.188;2023-05-25T07:41:52;53.17;;;30.70;;
32864;SDS011;19219;44.500;11.188;2023-05-25T07:44:18;49.83;;;27.23;;
32864;SDS011;19219;44.500;11.188;2023-05-25T07:46:43;41.25;;;24.75;;
32864;SDS011;19219;44.500;11.188;2023-05-25T07:49:09;42.78;;;26.45;;
32864;SDS011;19219;44.500;11.188;2023-05-25T07:51:39;41.28;;;25.02;;
32864;SDS011;19219;44.500;11.188;2023-05-25T07:54:09;47.97;;;27.20;;
32864;SDS011;19219;44.500;11.188;2023-05-25T07:56:35;43.05;;;26.58;;
32864;SDS011;19219;44.500;11.188;2023-05-25T07:59:01;41.80;;;26.08;;
32864;SDS011;19219;44.500;11.188;2023-05-25T08:01:27;46.17;;;27.20;;
32864;SDS011;19219;44.500;11.188;2023-05-25T08:03:52;42.22;;;25.63;;
32864;SDS011;19219;44.500;11.188;2023-05-25T08:06:18;44.70;;;26.48;;
32864;SDS011;19219;44.500;11.188;2023-05-25T08:08:44;43.60;;;25.75;;
32864;SDS011;19219;44.500;11.188;2023-05-25T08:11:10;43.05;;;26.67;;
32864;SDS011;19219;44.500;11.188;2023-05-25T08:13:36;40.13;;;25.08;;
32864;SDS011;19219;44.500;11.188;2023-05-25T08:16:02;39.75;;;25.42;;
32864;SDS011;19219;44.500;11.188;2023-05-25T08:18:29;45.40;;;26.27;;
32864;SDS011;19219;44.500;11.188;2023-05-25T08:20:55;38.67;;;24.80;;
32864;SDS011;19219;44.500;11.188;2023-05-25T08:23:21;39.80;;;24.10;;
32864;SDS011;19219;44.500;11.188;2023-05-25T08:25:47;47.78;;;25.95;;
32864;SDS011;19219;44.500;11.188;2023-05-25T08:28:13;53.67;;;25.67;;
32864;SDS011;19219;44.500;11.188;2023-05-25T08:30:38;45.95;;;27.00;;
32864;SDS011;19219;44.500;11.188;2023-05-25T08:33:05;53.95;;;27.52;;
32864;SDS011;19219;44.500;11.188;2023-05-25T08:35:31;45.20;;;25.00;;
32864;SDS011;19219;44.500;11.188;2023-05-25T08:37:57;42.22;;;26.55;;
32864;SDS011;19219;44.500;11.188;2023-05-25T08:40:22;42.40;;;27.13;;
32864;SDS011;19219;44.500;11.188;2023-05-25T08:42:52;43.60;;;26.98;;
32864;SDS011;19219;44.500;11.188;2023-05-25T08:45:17;40.88;;;23.27;;
32864;SDS011;19219;44.500;11.188;2023-05-25T08:47:43;41.38;;;25.48;;
32864;SDS011;19219;44.500;11.188;2023-05-25T08:50:12;37.83;;;23.98;;
32864;SDS011;19219;44.500;11.188;2023-05-25T08:52:43;38.42;;;23.33;;
32864;SDS011;19219;44.500;11.188;2023-05-25T08:55:10;28.77;;;20.70;;
32864;SDS011;19219;44.500;11.188;2023-05-25T08:57:54;32.35;;;20.85;;
32864;SDS011;19219;44.500;11.188;2023-05-25T09:00:23;27.30;;;21.33;;
32864;SDS011;19219;44.500;11.188;2023-05-25T09:05:39;36.13;;;23.63;;
32864;SDS011;19219;44.500;11.188;2023-05-25T09:08:06;30.70;;;21.83;;
32864;SDS011;19219;44.500;11.188;2023-05-25T09:10:36;35.42;;;22.95;;
32864;SDS011;19219;44.500;11.188;2023-05-25T09:13:02;33.67;;;22.20;;
32864;SDS011;19219;44.500;11.188;2023-05-25T09:15:29;30.92;;;21.92;;
32864;SDS011;19219;44.500;11.188;2023-05-25T09:17:55;33.38;;;21.25;;
32864;SDS011;19219;44.500;11.188;2023-05-25T09:20:21;33.20;;;21.73;;
32864;SDS011;19219;44.500;11.188;2023-05-25T09:22:47;30.75;;;21.35;;
32864;SDS011;19219;44.500;11.188;2023-05-25T09:25:14;27.58;;;20.25;;
32864;SDS011;19219;44.500;11.188;2023-05-25T09:27:45;34.60;;;20.85;;
32864;SDS011;19219;44.500;11.188;2023-05-25T09:30:10;28.02;;;19.80;;
32864;SDS011;19219;44.500;11.188;2023-05-25T09:32:36;24.92;;;18.95;;
32864;SDS011;19219;44.500;11.188;2023-05-25T09:35:12;25.40;;;19.33;;
32864;SDS011;19219;44.500;11.188;2023-05-25T09:37:40;25.08;;;17.30;;
32864;SDS011;19219;44.500;11.188;2023-05-25T09:40:07;24.70;;;18.80;;
32864;SDS011;19219;44.500;11.188;2023-05-25T09:42:34;24.70;;;18.02;;
32864;SDS011;19219;44.500;11.188;2023-05-25T09:45:01;25.80;;;17.25;;
32864;SDS011;19219;44.500;11.188;2023-05-25T09:47:27;21.58;;;16.20;;
32864;SDS011;19219;44.500;11.188;2023-05-25T09:49:54;25.10;;;19.10;;
32864;SDS011;19219;44.500;11.188;2023-05-25T09:52:20;23.77;;;17.70;;
32864;SDS011;19219;44.500;11.188;2023-05-25T09:54:47;21.08;;;16.65;;
32864;SDS011;19219;44.500;11.188;2023-05-25T09:57:14;31.65;;;20.50;;
32864;SDS011;19219;44.500;11.188;2023-05-25T09:59:41;23.05;;;17.33;;
32864;SDS011;19219;44.500;11.188;2023-05-25T10:02:07;23.48;;;16.50;;
32864;SDS011;19219;44.500;11.188;2023-05-25T10:04:33;28.95;;;18.52;;
32864;SDS011;19219;44.500;11.188;2023-05-25T10:06:59;21.58;;;15.20;;
32864;SDS011;19219;44.500;11.188;2023-05-25T10:09:26;23.38;;;15.02;;
32864;SDS011;19219;44.500;11.188;2023-05-25T10:11:53;21.23;;;14.25;;
32864;SDS011;19219;44.500;11.188;2023-05-25T10:14:22;20.35;;;14.98;;
32864;SDS011;19219;44.500;11.188;2023-05-25T10:16:52;13.57;;;11.33;;
32864;SDS011;19219;44.500;11.188;2023-05-25T10:19:20;14.77;;;10.45;;
32864;SDS011;19219;44.500;11.188;2023-05-25T10:22:03;13.10;;;10.13;;
32864;SDS011;19219;44.500;11.188;2023-05-25T10:27:18;17.00;;;11.63;;
32864;SDS011;19219;44.500;11.188;2023-05-25T10:29:47;11.10;;;9.65;;
32864;SDS011;19219;44.500;11.188;2023-05-25T10:32:15;12.05;;;9.45;;
32864;SDS011;19219;44.500;11.188;2023-05-25T10:34:41;18.15;;;10.07;;
32864;SDS011;19219;44.500;11.188;2023-05-25T10:37:07;11.95;;;8.68;;
32864;SDS011;19219;44.500;11.188;2023-05-25T10:39:35;12.98;;;8.98;;
32864;SDS011;19219;44.500;11.188;2023-05-25T10:42:01;11.52;;;9.15;;
32864;SDS011;19219;44.500;11.188;2023-05-25T10:44:30;19.33;;;14.13;;
32864;SDS011;19219;44.500;11.188;2023-05-25T10:46:59;24.95;;;18.83;;
32864;SDS011;19219;44.500;11.188;2023-05-25T10:49:32;16.30;;;9.57;;
32864;SDS011;19219;44.500;11.188;2023-05-25T10:51:59;10.48;;;9.10;;
32864;SDS011;19219;44.500;11.188;2023-05-25T10:54:30;14.55;;;9.13;;
32864;SDS011;19219;44.500;11.188;2023-05-25T10:57:18;12.20;;;7.90;;
32864;SDS011;19219;44.500;11.188;2023-05-25T10:59:52;12.45;;;8.23;;
32864;SDS011;19219;44.500;11.188;2023-05-25T11:02:26;11.30;;;7.45;;
32864;SDS011;19219;44.500;11.188;2023-05-25T11:21:22;10.82;;;8.63;;
32864;SDS011;19219;44.500;11.188;2023-05-25T11:23:51;13.85;;;9.10;;
32864;SDS011;19219;44.500;11.188;2023-05-25T11:26:25;16.15;;;8.93;;
32864;SDS011;19219;44.500;11.188;2023-05-25T11:28:53;8.93;;;7.93;;
32864;SDS011;19219;44.500;11.188;2023-05-25T11:31:29;10.40;;;8.02;;
32864;SDS011;19219;44.500;11.188;2023-05-25T11:33:57;15.73;;;8.07;;
32864;SDS011;19219;44.500;11.188;2023-05-25T11:36:25;12.95;;;8.35;;
32864;SDS011;19219;44.500;11.188;2023-05-25T11:38:55;9.20;;;7.53;;
32864;SDS011;19219;44.500;11.188;2023-05-25T11:41:22;10.15;;;8.40;;
32864;SDS011;19219;44.500;11.188;2023-05-25T11:43:48;10.05;;;8.30;;
32864;SDS011;19219;44.500;11.188;2023-05-25T11:46:16;9.45;;;7.40;;
32864;SDS011;19219;44.500;11.188;2023-05-25T11:48:48;11.88;;;8.15;;
32864;SDS011;19219;44.500;11.188;2023-05-25T11:51:25;9.60;;;8.23;;
32864;SDS011;19219;44.500;11.188;2023-05-25T11:53:52;12.13;;;7.63;;
32864;SDS011;19219;44.500;11.188;2023-05-25T11:56:18;12.65;;;8.38;;
32864;SDS011;19219;44.500;11.188;2023-05-25T11:58:45;11.27;;;7.95;;
32864;SDS011;19219;44.500;11.188;2023-05-25T12:01:15;8.38;;;7.22;;
32864;SDS011;19219;44.500;11.188;2023-05-25T12:03:46;15.55;;;10.07;;
32864;SDS011;19219;44.500;11.188;2023-05-25T12:09:09;8.35;;;7.40;;
32864;SDS011;19219;44.500;11.188;2023-05-25T12:11:37;9.13;;;7.07;;
32864;SDS011;19219;44.500;11.188;2023-05-25T12:14:03;9.07;;;6.57;;
32864;SDS011;19219;44.500;11.188;2023-05-25T12:16:31;9.35;;;7.05;;
32864;SDS011;19219;44.500;11.188;2023-05-25T12:18:58;8.48;;;7.07;;
32864;SDS011;19219;44.500;11.188;2023-05-25T12:21:26;8.10;;;6.80;;
32864;SDS011;19219;44.500;11.188;2023-05-25T12:23:52;8.63;;;7.35;;
32864;SDS011;19219;44.500;11.188;2023-05-25T12:26:18;8.30;;;6.65;;
32864;SDS011;19219;44.500;11.188;2023-05-25T12:29:04;11.15;;;6.35;;
32864;SDS011;19219;44.500;11.188;2023-05-25T12:31:31;8.05;;;6.72;;
32864;SDS011;19219;44.500;11.188;2023-05-25T12:34:10;9.52;;;7.18;;
32864;SDS011;19219;44.500;11.188;2023-05-25T12:39:03;10.63;;;6.18;;
32864;SDS011;19219;44.500;11.188;2023-05-25T12:41:29;6.88;;;6.15;;
32864;SDS011;19219;44.500;11.188;2023-05-25T12:43:56;9.95;;;6.95;;
32864;SDS011;19219;44.500;11.188;2023-05-25T12:46:23;8.00;;;6.72;;
32864;SDS011;19219;44.500;11.188;2023-05-25T12:48:49;10.80;;;6.32;;
32864;SDS011;19219;44.500;11.188;2023-05-25T12:51:15;9.40;;;6.88;;
32864;SDS011;19219;44.500;11.188;2023-05-25T12:53:48;8.43;;;6.80;;
32864;SDS011;19219;44.500;11.188;2023-05-25T12:56:14;6.72;;;5.70;;
32864;SDS011;19219;44.500;11.188;2023-05-25T12:58:40;7.03;;;6.32;;
32864;SDS011;19219;44.500;11.188;2023-05-25T13:01:08;8.07;;;6.65;;
32864;SDS011;19219;44.500;11.188;2023-05-25T13:03:34;10.05;;;6.80;;
32864;SDS011;19219;44.500;11.188;2023-05-25T13:06:00;7.35;;;6.38;;
32864;SDS011;19219;44.500;11.188;2023-05-25T13:08:27;11.38;;;6.90;;
32864;SDS011;19219;44.500;11.188;2023-05-25T13:10:54;8.18;;;6.32;;
32864;SDS011;19219;44.500;11.188;2023-05-25T13:13:20;10.90;;;6.80;;
32864;SDS011;19219;44.500;11.188;2023-05-25T13:15:46;7.78;;;6.15;;
32864;SDS011;19219;44.500;11.188;2023-05-25T13:18:11;10.18;;;6.45;;
32864;SDS011;19219;44.500;11.188;2023-05-25T13:20:37;10.13;;;5.70;;
32864;SDS011;19219;44.500;11.188;2023-05-25T13:23:03;8.13;;;6.00;;
32864;SDS011;19219;44.500;11.188;2023-05-25T13:25:30;6.70;;;5.15;;
32864;SDS011;19219;44.500;11.188;2023-05-25T13:27:55;7.53;;;5.30;;
32864;SDS011;19219;44.500;11.188;2023-05-25T13:30:23;9.32;;;5.28;;
32864;SDS011;19219;44.500;11.188;2023-05-25T13:32:50;11.32;;;5.60;;
32864;SDS011;19219;44.500;11.188;2023-05-25T13:35:16;6.93;;;5.53;;
32864;SDS011;19219;44.500;11.188;2023-05-25T13:40:12;7.78;;;5.60;;
32864;SDS011;19219;44.500;11.188;2023-05-25T13:42:37;7.35;;;5.57;;
32864;SDS011;19219;44.500;11.188;2023-05-25T13:45:03;6.28;;;5.10;;
32864;SDS011;19219;44.500;11.188;2023-05-25T13:47:30;9.52;;;5.55;;
32864;SDS011;19219;44.500;11.188;2023-05-25T13:49:55;5.80;;;4.50;;
32864;SDS011;19219;44.500;11.188;2023-05-25T13:52:21;6.03;;;4.85;;
32864;SDS011;19219;44.500;11.188;2023-05-25T13:54:46;6.45;;;5.00;;
32864;SDS011;19219;44.500;11.188;2023-05-25T13:57:12;5.72;;;4.97;;
32864;SDS011;19219;44.500;11.188;2023-05-25T13:59:38;9.88;;;5.90;;
32864;SDS011;19219;44.500;11.188;2023-05-25T14:02:04;5.95;;;4.72;;
32864;SDS011;19219;44.500;11.188;2023-05-25T14:04:30;9.77;;;5.60;;
32864;SDS011;19219;44.500;11.188;2023-05-25T14:06:55;7.63;;;5.43;;
32864;SDS011;19219;44.500;11.188;2023-05-25T14:09:21;6.22;;;5.47;;
32864;SDS011;19219;44.500;11.188;2023-05-25T14:11:47;8.80;;;5.30;;
32864;SDS011;19219;44.500;11.188;2023-05-25T14:14:13;7.05;;;5.57;;
32864;SDS011;19219;44.500;11.188;2023-05-25T14:16:38;6.18;;;4.82;;
32864;SDS011;19219;44.500;11.188;2023-05-25T14:19:04;8.25;;;4.57;;
32864;SDS011;19219;44.500;11.188;2023-05-25T14:21:30;6.00;;;5.00;;
32864;SDS011;19219;44.500;11.188;2023-05-25T14:23:56;6.32;;;5.13;;
32864;SDS011;19219;44.500;11.188;2023-05-25T14:26:22;6.75;;;5.15;;
32864;SDS011;19219;44.500;11.188;2023-05-25T14:28:48;6.28;;;4.85;;
32864;SDS011;19219;44.500;11.188;2023-05-25T14:31:14;5.05;;;4.55;;
32864;SDS011;19219;44.500;11.188;2023-05-25T14:33:40;6.45;;;5.32;;
32864;SDS011;19219;44.500;11.188;2023-05-25T14:36:05;7.63;;;5.53;;
32864;SDS011;19219;44.500;11.188;2023-05-25T14:38:31;7.22;;;4.75;;
32864;SDS011;19219;44.500;11.188;2023-05-25T14:40:57;5.85;;;4.20;;
32864;SDS011;19219;44.500;11.188;2023-05-25T14:43:23;10.10;;;4.88;;
32864;SDS011;19219;44.500;11.188;2023-05-25T14:45:49;4.90;;;4.40;;
32864;SDS011;19219;44.500;11.188;2023-05-25T14:48:15;10.88;;;5.22;;
32864;SDS011;19219;44.500;11.188;2023-05-25T14:50:42;5.65;;;4.18;;
32864;SDS011;19219;44.500;11.188;2023-05-25T14:53:09;5.45;;;4.95;;